Weather at Warsaw Chopin Airport

Public forecast

Using degrees Celsius for public forecast. Weather courtesy of forecast.io.

Current aviation weather report (METAR) for Warsaw Chopin Airport

Retrieved 2020/12/01 17:00 UTC (25 minutes ago):

EPWA 011700Z 12008KT 9999 BKN036 M01/M04 Q1024 NOSIG

Aviation forecast (TAF) for Warsaw Chopin Airport

Retrieved 2020/12/01 15:34 UTC (2 hours ago):

TAF EPWA 011430Z 0115/0215 13008KT CAVOK TEMPO 0200/0210 SCT007 BKN012 PROB40 0202/0209 BKN004